Los Angeles International Airport
KLAX : rendu visible

Aérodrome :











RETROUVEZ-NOUS SUR...

 
LOGIN :

S'inscrire | Disclaimer

   EN    FR    IT 

 









Légende :    VFR   VFR Marginal   IFR   IFR Intensif   IFR Très Intensif
Visi : 
Plafond : 
>= 8 km
>= 3000ft
5 à 8 km
1000 à 3000 ft
1500m à 5 km
500 à 1000 ft
800 à 1500m
200 à 500 ft
< 800m
< 200 ft
Symboles :   Orages  Brouillard  Fortes neiges  Fortes précipitations  Vent > 20 kt






- Altitude de l'aérodrome : 125 ft
- Code IATA : LAX


KLAX - Los Angeles International

DERNIER METAR :
  • 031353Z 26007KT 8SM FEW009 SCT190 17/14 A2999 RMK AO2 SLP152 T01720144

METARs EXPIRÉS :
  • 031253Z 28006KT 9SM FEW007 FEW010 SCT200 16/14 A2997 RMK AO2 SLP147 T01610144
  • 031153Z 29006KT 10SM FEW008 FEW010 17/14 A2996 RMK AO2 SLP144 T01670139 10172 20161 53001

TAF KLAX
Valide du 03 à 13h jusqu'au 04 à 18h UTC


031313Z 0313/0418 27006KT P6SM SCT009
FM031700 25012KT P6SM SKC
FM040400 26008KT P6SM SCT015
FM041200 VRB03KT P6SM OVC009
FM041700 25006KT P6SM OVC012
FIR KZLA / Amérique du Nord



MET'MAP, la Météo Aéronautique d'un coup d'oeil ! - Copyright ORBIFLY Décembre 2007 - Disclaimer

ORBIFLY MET'MAP TEAM :

Programmation & Développement : Alexandra Zaïnal
Sur une idée originale de : Baudouin d'Aumeries
Assistance à la programmation : Marc-Olivier Méhu
Soutien technique & logistique : Manuel Goepfert

Contact : metmap@orbifly.com




SOURCES & CREDITS :

   NOAA       Earth
Advisory